sensor_id;sensor_type;location;lat;lon;timestamp;pressure;altitude;pressure_sealevel;temperature;humidity
57574;BME280;63722;48.858;21.906;2022-12-18T00:01:46;99725.41;;;20.51;40.56
57574;BME280;63722;48.858;21.906;2022-12-18T00:04:22;99727.00;;;20.52;40.45
57574;BME280;63722;48.858;21.906;2022-12-18T00:06:48;99736.66;;;20.53;40.43
57574;BME280;63722;48.858;21.906;2022-12-18T00:09:14;99741.97;;;20.53;40.47
57574;BME280;63722;48.858;21.906;2022-12-18T00:11:39;99738.09;;;20.49;40.58
57574;BME280;63722;48.858;21.906;2022-12-18T00:14:05;99747.31;;;20.53;40.55
57574;BME280;63722;48.858;21.906;2022-12-18T00:16:30;99748.53;;;20.51;40.43
57574;BME280;63722;48.858;21.906;2022-12-18T00:18:58;99756.31;;;20.52;40.46
57574;BME280;63722;48.858;21.906;2022-12-18T00:21:24;99752.47;;;20.48;40.37
57574;BME280;63722;48.858;21.906;2022-12-18T00:23:50;99760.63;;;20.53;40.44
57574;BME280;63722;48.858;21.906;2022-12-18T00:26:21;99764.31;;;20.52;40.35
57574;BME280;63722;48.858;21.906;2022-12-18T00:28:47;99766.41;;;20.50;40.27
57574;BME280;63722;48.858;21.906;2022-12-18T00:31:15;99764.75;;;20.49;40.38
57574;BME280;63722;48.858;21.906;2022-12-18T00:33:41;99770.91;;;20.50;40.50
57574;BME280;63722;48.858;21.906;2022-12-18T00:36:10;99766.03;;;20.47;40.50
57574;BME280;63722;48.858;21.906;2022-12-18T00:38:36;99776.63;;;20.53;40.37
57574;BME280;63722;48.858;21.906;2022-12-18T00:41:02;99768.63;;;20.53;40.67
57574;BME280;63722;48.858;21.906;2022-12-18T00:43:28;99773.38;;;20.51;40.32
57574;BME280;63722;48.858;21.906;2022-12-18T00:45:54;99775.41;;;20.49;40.47
57574;BME280;63722;48.858;21.906;2022-12-18T00:48:20;99781.13;;;20.53;40.58
57574;BME280;63722;48.858;21.906;2022-12-18T00:50:47;99778.69;;;20.51;40.52
57574;BME280;63722;48.858;21.906;2022-12-18T00:53:12;99785.25;;;20.49;40.51
57574;BME280;63722;48.858;21.906;2022-12-18T00:55:41;99800.00;;;20.51;40.22
57574;BME280;63722;48.858;21.906;2022-12-18T00:58:08;99814.13;;;20.52;40.48
57574;BME280;63722;48.858;21.906;2022-12-18T01:00:34;99821.31;;;20.51;40.35
57574;BME280;63722;48.858;21.906;2022-12-18T01:02:59;99824.00;;;20.51;40.42
57574;BME280;63722;48.858;21.906;2022-12-18T01:05:25;99819.09;;;20.48;40.50
57574;BME280;63722;48.858;21.906;2022-12-18T01:07:50;99827.69;;;20.50;40.25
57574;BME280;63722;48.858;21.906;2022-12-18T01:10:16;99821.97;;;20.47;40.48
57574;BME280;63722;48.858;21.906;2022-12-18T01:12:41;99831.38;;;20.49;40.47
57574;BME280;63722;48.858;21.906;2022-12-18T01:15:07;99827.88;;;20.49;40.32
57574;BME280;63722;48.858;21.906;2022-12-18T01:17:33;99834.66;;;20.51;40.42
57574;BME280;63722;48.858;21.906;2022-12-18T01:19:58;99837.31;;;20.51;40.39
57574;BME280;63722;48.858;21.906;2022-12-18T01:22:24;99844.25;;;20.52;40.38
57574;BME280;63722;48.858;21.906;2022-12-18T01:24:49;99836.53;;;20.44;40.34
57574;BME280;63722;48.858;21.906;2022-12-18T01:27:15;99842.03;;;20.49;40.60
57574;BME280;63722;48.858;21.906;2022-12-18T01:29:40;99838.56;;;20.49;40.44
57574;BME280;63722;48.858;21.906;2022-12-18T01:32:06;99840.63;;;20.47;40.31
57574;BME280;63722;48.858;21.906;2022-12-18T01:34:31;99852.91;;;20.48;40.35
57574;BME280;63722;48.858;21.906;2022-12-18T01:36:56;99858.84;;;20.50;40.52
57574;BME280;63722;48.858;21.906;2022-12-18T01:39:23;99861.09;;;20.46;40.61
57574;BME280;63722;48.858;21.906;2022-12-18T01:41:49;99861.94;;;20.47;40.38
57574;BME280;63722;48.858;21.906;2022-12-18T01:45:04;99871.34;;;20.49;40.50
57574;BME280;63722;48.858;21.906;2022-12-18T01:47:38;99871.34;;;20.49;40.17
57574;BME280;63722;48.858;21.906;2022-12-18T01:50:32;99863.38;;;20.43;40.40
57574;BME280;63722;48.858;21.906;2022-12-18T01:53:26;99872.16;;;20.50;40.57
57574;BME280;63722;48.858;21.906;2022-12-18T01:55:56;99874.00;;;20.49;40.44
57574;BME280;63722;48.858;21.906;2022-12-18T01:58:32;99878.53;;;20.49;40.39
57574;BME280;63722;48.858;21.906;2022-12-18T02:01:00;99878.94;;;20.46;40.49
57574;BME280;63722;48.858;21.906;2022-12-18T02:03:26;99889.38;;;20.47;40.41
57574;BME280;63722;48.858;21.906;2022-12-18T02:06:09;99892.06;;;20.47;40.47
57574;BME280;63722;48.858;21.906;2022-12-18T02:16:37;99903.31;;;20.49;40.51
57574;BME280;63722;48.858;21.906;2022-12-18T02:22:11;99907.22;;;20.47;40.40
57574;BME280;63722;48.858;21.906;2022-12-18T02:27:23;99915.22;;;20.47;40.38
57574;BME280;63722;48.858;21.906;2022-12-18T02:29:51;99917.28;;;20.45;40.40
57574;BME280;63722;48.858;21.906;2022-12-18T02:32:20;99919.72;;;20.46;40.29
57574;BME280;63722;48.858;21.906;2022-12-18T02:34:49;99929.16;;;20.49;40.43
57574;BME280;63722;48.858;21.906;2022-12-18T02:37:17;99931.00;;;20.48;40.31
57574;BME280;63722;48.858;21.906;2022-12-18T02:39:46;99933.03;;;20.46;40.54
57574;BME280;63722;48.858;21.906;2022-12-18T02:42:14;99936.53;;;20.47;40.50
57574;BME280;63722;48.858;21.906;2022-12-18T02:44:45;99948.81;;;20.48;40.52
57574;BME280;63722;48.858;21.906;2022-12-18T02:47:12;99947.19;;;20.47;40.44
57574;BME280;63722;48.858;21.906;2022-12-18T02:52:34;99951.69;;;20.46;40.47
57574;BME280;63722;48.858;21.906;2022-12-18T03:01:30;99981.63;;;20.48;40.30
57574;BME280;63722;48.858;21.906;2022-12-18T03:04:02;99982.06;;;20.45;40.48
57574;BME280;63722;48.858;21.906;2022-12-18T03:06:33;99979.78;;;20.49;40.54
57574;BME280;63722;48.858;21.906;2022-12-18T03:09:08;99979.97;;;20.47;40.28
57574;BME280;63722;48.858;21.906;2022-12-18T03:11:38;99985.31;;;20.47;40.42
57574;BME280;63722;48.858;21.906;2022-12-18T03:14:25;99986.13;;;20.48;40.19
57574;BME280;63722;48.858;21.906;2022-12-18T03:16:57;99982.84;;;20.46;40.52
57574;BME280;63722;48.858;21.906;2022-12-18T03:19:28;99983.28;;;20.43;40.35
57574;BME280;63722;48.858;21.906;2022-12-18T03:21:56;99992.72;;;20.45;40.75
57574;BME280;63722;48.858;21.906;2022-12-18T03:24:23;99990.84;;;20.46;40.48
57574;BME280;63722;48.858;21.906;2022-12-18T03:26:53;100015.44;;;20.48;40.27
57574;BME280;63722;48.858;21.906;2022-12-18T03:29:24;100020.97;;;20.46;40.01
57574;BME280;63722;48.858;21.906;2022-12-18T03:32:01;100012.38;;;20.44;40.34
57574;BME280;63722;48.858;21.906;2022-12-18T03:34:31;100022.63;;;20.47;40.30
57574;BME280;63722;48.858;21.906;2022-12-18T03:36:58;100020.97;;;20.46;40.45
57574;BME280;63722;48.858;21.906;2022-12-18T03:39:24;100018.13;;;20.41;40.35
57574;BME280;63722;48.858;21.906;2022-12-18T03:41:55;100021.38;;;20.43;40.02
57574;BME280;63722;48.858;21.906;2022-12-18T03:53:00;100054.59;;;20.47;40.46
57574;BME280;63722;48.858;21.906;2022-12-18T03:55:32;100048.66;;;20.45;40.27
57574;BME280;63722;48.858;21.906;2022-12-18T03:58:01;100049.47;;;20.46;40.36
57574;BME280;63722;48.858;21.906;2022-12-18T04:00:29;100059.91;;;20.47;40.38
57574;BME280;63722;48.858;21.906;2022-12-18T04:02:56;100065.25;;;20.47;40.38
57574;BME280;63722;48.858;21.906;2022-12-18T04:05:24;100067.91;;;20.47;40.41
57574;BME280;63722;48.858;21.906;2022-12-18T04:07:51;100063.81;;;20.45;40.36
57574;BME280;63722;48.858;21.906;2022-12-18T04:10:19;100068.94;;;20.46;40.39
57574;BME280;63722;48.858;21.906;2022-12-18T04:12:44;100082.25;;;20.46;40.31
57574;BME280;63722;48.858;21.906;2022-12-18T04:15:10;100090.03;;;20.48;40.39
57574;BME280;63722;48.858;21.906;2022-12-18T04:17:36;100086.59;;;20.41;40.28
57574;BME280;63722;48.858;21.906;2022-12-18T04:20:02;100104.41;;;20.47;40.30
57574;BME280;63722;48.858;21.906;2022-12-18T04:22:28;100096.41;;;20.47;40.20
57574;BME280;63722;48.858;21.906;2022-12-18T04:24:53;100095.56;;;20.46;40.25
57574;BME280;63722;48.858;21.906;2022-12-18T04:27:18;100097.22;;;20.47;40.26
57574;BME280;63722;48.858;21.906;2022-12-18T04:29:44;100096.00;;;20.43;40.27
57574;BME280;63722;48.858;21.906;2022-12-18T04:32:09;100100.09;;;20.46;40.19
57574;BME280;63722;48.858;21.906;2022-12-18T04:34:35;100105.63;;;20.44;40.16
57574;BME280;63722;48.858;21.906;2022-12-18T04:37:00;100118.75;;;20.46;40.33
57574;BME280;63722;48.858;21.906;2022-12-18T04:39:25;100127.56;;;20.46;40.19
57574;BME280;63722;48.858;21.906;2022-12-18T04:41:51;100126.94;;;20.44;40.32
57574;BME280;63722;48.858;21.906;2022-12-18T04:44:16;100139.03;;;20.47;40.35
57574;BME280;63722;48.858;21.906;2022-12-18T04:46:42;100132.09;;;20.39;40.25
57574;BME280;63722;48.858;21.906;2022-12-18T04:49:07;100132.47;;;20.43;40.20
57574;BME280;63722;48.858;21.906;2022-12-18T04:51:32;100150.94;;;20.44;40.18
57574;BME280;63722;48.858;21.906;2022-12-18T04:53:58;100151.94;;;20.43;40.17
57574;BME280;63722;48.858;21.906;2022-12-18T04:56:23;100155.03;;;20.47;40.20
57574;BME280;63722;48.858;21.906;2022-12-18T04:58:49;100157.91;;;20.45;40.10
57574;BME280;63722;48.858;21.906;2022-12-18T05:01:16;100172.03;;;20.46;40.18
57574;BME280;63722;48.858;21.906;2022-12-18T05:03:42;100172.03;;;20.46;40.34
57574;BME280;63722;48.858;21.906;2022-12-18T05:06:07;100172.84;;;20.46;40.22
57574;BME280;63722;48.858;21.906;2022-12-18T05:08:33;100170.19;;;20.46;40.35
57574;BME280;63722;48.858;21.906;2022-12-18T05:11:18;100171.44;;;20.44;40.29
57574;BME280;63722;48.858;21.906;2022-12-18T05:13:44;100179.22;;;20.45;40.15
57574;BME280;63722;48.858;21.906;2022-12-18T05:16:11;100191.50;;;20.46;40.22
57574;BME280;63722;48.858;21.906;2022-12-18T05:18:36;100190.69;;;20.46;39.94
57574;BME280;63722;48.858;21.906;2022-12-18T05:21:02;100194.16;;;20.46;40.24
57574;BME280;63722;48.858;21.906;2022-12-18T05:23:28;100198.69;;;20.46;40.31
57574;BME280;63722;48.858;21.906;2022-12-18T05:25:56;100206.69;;;20.46;40.16
57574;BME280;63722;48.858;21.906;2022-12-18T05:28:24;100208.53;;;20.45;40.19
57574;BME280;63722;48.858;21.906;2022-12-18T05:30:51;100203.22;;;20.45;40.22
57574;BME280;63722;48.858;21.906;2022-12-18T05:33:17;100218.16;;;20.46;40.18
57574;BME280;63722;48.858;21.906;2022-12-18T05:35:43;100218.56;;;20.43;40.16
57574;BME280;63722;48.858;21.906;2022-12-18T05:38:09;100219.00;;;20.47;40.15
57574;BME280;63722;48.858;21.906;2022-12-18T05:40:34;100231.88;;;20.43;40.14
57574;BME280;63722;48.858;21.906;2022-12-18T05:42:59;100225.53;;;20.44;40.26
57574;BME280;63722;48.858;21.906;2022-12-18T05:45:25;100223.47;;;20.46;40.24
57574;BME280;63722;48.858;21.906;2022-12-18T05:47:50;100235.78;;;20.47;39.99
57574;BME280;63722;48.858;21.906;2022-12-18T05:50:16;100236.19;;;20.44;40.03
57574;BME280;63722;48.858;21.906;2022-12-18T05:52:41;100255.44;;;20.46;40.05
57574;BME280;63722;48.858;21.906;2022-12-18T05:55:07;100257.09;;;20.47;39.99
57574;BME280;63722;48.858;21.906;2022-12-18T05:57:32;100253.41;;;20.48;39.93
57574;BME280;63722;48.858;21.906;2022-12-18T05:59:57;100253.19;;;20.43;40.19
57574;BME280;63722;48.858;21.906;2022-12-18T06:02:23;100255.88;;;20.43;40.07
57574;BME280;63722;48.858;21.906;2022-12-18T06:04:48;100270.44;;;20.47;40.07
57574;BME280;63722;48.858;21.906;2022-12-18T06:07:14;100271.66;;;20.45;40.19
57574;BME280;63722;48.858;21.906;2022-12-18T06:09:39;100266.53;;;20.43;39.88
57574;BME280;63722;48.858;21.906;2022-12-18T06:12:05;100273.50;;;20.44;40.06
57574;BME280;63722;48.858;21.906;2022-12-18T06:14:30;100285.59;;;20.47;40.15
57574;BME280;63722;48.858;21.906;2022-12-18T06:16:56;100286.63;;;20.46;40.08
57574;BME280;63722;48.858;21.906;2022-12-18T06:19:21;100294.63;;;20.46;40.21
57574;BME280;63722;48.858;21.906;2022-12-18T06:21:46;100281.69;;;20.43;40.10
57574;BME280;63722;48.858;21.906;2022-12-18T06:24:12;100305.28;;;20.46;39.91
57574;BME280;63722;48.858;21.906;2022-12-18T06:26:38;100305.47;;;20.44;40.28
57574;BME280;63722;48.858;21.906;2022-12-18T06:29:04;100305.47;;;20.44;40.03
57574;BME280;63722;48.858;21.906;2022-12-18T06:31:30;100306.91;;;20.47;40.01
57574;BME280;63722;48.858;21.906;2022-12-18T06:33:55;100312.84;;;20.42;40.28
57574;BME280;63722;48.858;21.906;2022-12-18T06:36:20;100321.88;;;20.48;40.18
57574;BME280;63722;48.858;21.906;2022-12-18T06:38:46;100322.72;;;20.48;40.08
57574;BME280;63722;48.858;21.906;2022-12-18T06:41:20;100319.00;;;20.49;39.98
57574;BME280;63722;48.858;21.906;2022-12-18T06:43:45;100324.72;;;20.46;40.12
57574;BME280;63722;48.858;21.906;2022-12-18T06:46:11;100325.16;;;20.50;40.13
57574;BME280;63722;48.858;21.906;2022-12-18T06:48:37;100321.06;;;20.47;39.99
57574;BME280;63722;48.858;21.906;2022-12-18T06:51:03;100327.41;;;20.46;40.06
57574;BME280;63722;48.858;21.906;2022-12-18T06:53:28;100322.50;;;20.50;39.90
57574;BME280;63722;48.858;21.906;2022-12-18T06:56:02;100335.38;;;20.46;39.97
57574;BME280;63722;48.858;21.906;2022-12-18T06:58:28;100342.16;;;20.49;39.86
57574;BME280;63722;48.858;21.906;2022-12-18T07:00:53;100347.91;;;20.52;39.83
57574;BME280;63722;48.858;21.906;2022-12-18T07:03:19;100357.56;;;20.53;40.00
57574;BME280;63722;48.858;21.906;2022-12-18T07:05:44;100353.25;;;20.52;40.02
57574;BME280;63722;48.858;21.906;2022-12-18T07:08:09;100355.91;;;20.52;39.61
57574;BME280;63722;48.858;21.906;2022-12-18T07:10:41;100365.56;;;20.53;39.92
57574;BME280;63722;48.858;21.906;2022-12-18T07:13:07;100366.38;;;20.54;39.98
57574;BME280;63722;48.858;21.906;2022-12-18T07:15:32;100368.22;;;20.53;39.87
57574;BME280;63722;48.858;21.906;2022-12-18T07:17:58;100362.69;;;20.48;39.58
57574;BME280;63722;48.858;21.906;2022-12-18T07:20:23;100385.66;;;20.56;39.88
57574;BME280;63722;48.858;21.906;2022-12-18T07:22:49;100387.47;;;20.55;39.87
57574;BME280;63722;48.858;21.906;2022-12-18T07:25:14;100391.19;;;20.54;39.88
57574;BME280;63722;48.858;21.906;2022-12-18T07:27:39;100403.06;;;20.58;39.82
57574;BME280;63722;48.858;21.906;2022-12-18T07:30:05;100398.13;;;20.55;39.82
57574;BME280;63722;48.858;21.906;2022-12-18T07:32:31;100398.78;;;20.57;39.79
57574;BME280;63722;48.858;21.906;2022-12-18T07:34:56;100406.56;;;20.59;39.65
57574;BME280;63722;48.858;21.906;2022-12-18T07:37:21;100401.03;;;20.61;39.30
57574;BME280;63722;48.858;21.906;2022-12-18T07:39:47;100414.16;;;20.62;39.72
57574;BME280;63722;48.858;21.906;2022-12-18T07:42:12;100416.47;;;20.65;39.63
57574;BME280;63722;48.858;21.906;2022-12-18T07:44:55;100421.78;;;20.65;39.55
57574;BME280;63722;48.858;21.906;2022-12-18T07:47:21;100415.63;;;20.65;39.76
57574;BME280;63722;48.858;21.906;2022-12-18T07:49:46;100421.78;;;20.65;39.54
57574;BME280;63722;48.858;21.906;2022-12-18T07:52:11;100419.53;;;20.69;39.73
57574;BME280;63722;48.858;21.906;2022-12-18T07:54:37;100424.06;;;20.68;39.50
57574;BME280;63722;48.858;21.906;2022-12-18T07:57:03;100426.53;;;20.70;39.79
57574;BME280;63722;48.858;21.906;2022-12-18T07:59:28;100430.19;;;20.69;40.08
57574;BME280;63722;48.858;21.906;2022-12-18T08:01:53;100440.47;;;20.72;39.46
57574;BME280;63722;48.858;21.906;2022-12-18T08:04:19;100443.72;;;20.74;39.53
57574;BME280;63722;48.858;21.906;2022-12-18T08:06:44;100439.44;;;20.73;39.74
57574;BME280;63722;48.858;21.906;2022-12-18T08:09:10;100438.41;;;20.74;39.45
57574;BME280;63722;48.858;21.906;2022-12-18T08:11:35;100441.06;;;20.74;39.52
57574;BME280;63722;48.858;21.906;2022-12-18T08:14:01;100449.72;;;20.76;39.35
57574;BME280;63722;48.858;21.906;2022-12-18T08:16:26;100440.88;;;20.75;39.53
57574;BME280;63722;48.858;21.906;2022-12-18T08:18:52;100447.66;;;20.78;39.38
57574;BME280;63722;48.858;21.906;2022-12-18T08:21:21;100455.66;;;20.78;39.37
57574;BME280;63722;48.858;21.906;2022-12-18T08:23:49;100456.25;;;20.80;39.45
57574;BME280;63722;48.858;21.906;2022-12-18T08:26:15;100456.47;;;20.79;39.78
57574;BME280;63722;48.858;21.906;2022-12-18T08:28:41;100454.84;;;20.78;39.37
57574;BME280;63722;48.858;21.906;2022-12-18T08:31:07;100457.31;;;20.79;39.35
57574;BME280;63722;48.858;21.906;2022-12-18T08:33:33;100451.97;;;20.79;39.34
57574;BME280;63722;48.858;21.906;2022-12-18T08:36:00;100456.91;;;20.82;39.41
57574;BME280;63722;48.858;21.906;2022-12-18T08:38:25;100451.75;;;20.81;39.16
57574;BME280;63722;48.858;21.906;2022-12-18T08:43:26;100458.53;;;20.83;39.15
57574;BME280;63722;48.858;21.906;2022-12-18T08:46:19;100463.84;;;20.83;39.23
57574;BME280;63722;48.858;21.906;2022-12-18T08:48:45;100457.50;;;20.84;39.39
57574;BME280;63722;48.858;21.906;2022-12-18T08:51:10;100467.56;;;20.82;39.55
57574;BME280;63722;48.858;21.906;2022-12-18T08:53:36;100468.78;;;20.86;39.42
57574;BME280;63722;48.858;21.906;2022-12-18T08:56:03;100465.50;;;20.84;39.27
57574;BME280;63722;48.858;21.906;2022-12-18T08:58:29;100464.50;;;20.85;38.94
57574;BME280;63722;48.858;21.906;2022-12-18T09:01:00;100467.16;;;20.85;39.31
57574;BME280;63722;48.858;21.906;2022-12-18T09:03:25;100475.78;;;20.87;39.26
57574;BME280;63722;48.858;21.906;2022-12-18T09:05:51;100467.78;;;20.87;39.28
57574;BME280;63722;48.858;21.906;2022-12-18T09:08:16;100476.38;;;20.89;39.19
57574;BME280;63722;48.858;21.906;2022-12-18T09:10:47;100480.91;;;20.89;39.21
57574;BME280;63722;48.858;21.906;2022-12-18T09:13:12;100479.03;;;20.89;39.05
57574;BME280;63722;48.858;21.906;2022-12-18T09:15:46;100479.03;;;20.89;39.17
57574;BME280;63722;48.858;21.906;2022-12-18T09:18:13;100475.38;;;20.90;39.20
57574;BME280;63722;48.858;21.906;2022-12-18T09:20:39;100485.03;;;20.91;39.02
57574;BME280;63722;48.858;21.906;2022-12-18T09:23:05;100476.38;;;20.89;39.18
57574;BME280;63722;48.858;21.906;2022-12-18T09:25:31;100474.34;;;20.91;39.19
57574;BME280;63722;48.858;21.906;2022-12-18T09:27:59;100477.03;;;20.91;39.16
57574;BME280;63722;48.858;21.906;2022-12-18T09:30:25;100471.69;;;20.91;39.19
57574;BME280;63722;48.858;21.906;2022-12-18T09:32:50;100465.50;;;20.91;39.17
57574;BME280;63722;48.858;21.906;2022-12-18T09:35:15;100464.69;;;20.90;39.19
57574;BME280;63722;48.858;21.906;2022-12-18T09:37:41;100463.69;;;20.91;38.97
57574;BME280;63722;48.858;21.906;2022-12-18T09:40:23;100470.63;;;20.92;39.21
57574;BME280;63722;48.858;21.906;2022-12-18T09:42:59;100461.63;;;20.93;39.20
57574;BME280;63722;48.858;21.906;2022-12-18T09:45:25;100465.31;;;20.92;39.15
57574;BME280;63722;48.858;21.906;2022-12-18T09:47:52;100470.03;;;20.90;39.20
57574;BME280;63722;48.858;21.906;2022-12-18T09:50:29;100471.28;;;20.95;38.64
57574;BME280;63722;48.858;21.906;2022-12-18T09:52:59;100482.75;;;20.95;39.20
57574;BME280;63722;48.858;21.906;2022-12-18T09:55:31;100478.25;;;20.96;38.95
57574;BME280;63722;48.858;21.906;2022-12-18T09:58:06;100471.47;;;20.93;39.15
57574;BME280;63722;48.858;21.906;2022-12-18T10:00:32;100471.88;;;20.97;39.09
57574;BME280;63722;48.858;21.906;2022-12-18T10:03:09;100469.22;;;20.97;39.14
57574;BME280;63722;48.858;21.906;2022-12-18T10:08:36;100466.16;;;20.93;39.03
57574;BME280;63722;48.858;21.906;2022-12-18T10:13:54;100469.63;;;20.93;38.96
57574;BME280;63722;48.858;21.906;2022-12-18T10:19:01;100475.16;;;20.99;39.06
57574;BME280;63722;48.858;21.906;2022-12-18T10:24:35;100474.16;;;21.00;38.99
57574;BME280;63722;48.858;21.906;2022-12-18T10:27:13;100479.47;;;21.00;38.79
57574;BME280;63722;48.858;21.906;2022-12-18T10:29:41;100473.34;;;20.99;39.05
57574;BME280;63722;48.858;21.906;2022-12-18T10:32:13;100470.47;;;21.01;39.07
57574;BME280;63722;48.858;21.906;2022-12-18T10:34:39;100471.47;;;21.00;38.82
57574;BME280;63722;48.858;21.906;2022-12-18T10:37:11;100467.16;;;20.99;38.98
57574;BME280;63722;48.858;21.906;2022-12-18T10:39:40;100468.81;;;21.00;38.96
57574;BME280;63722;48.858;21.906;2022-12-18T10:42:14;100482.75;;;21.02;38.92
57574;BME280;63722;48.858;21.906;2022-12-18T10:44:41;100480.09;;;21.02;38.86
57574;BME280;63722;48.858;21.906;2022-12-18T10:47:12;100475.59;;;21.02;39.11
57574;BME280;63722;48.858;21.906;2022-12-18T10:49:45;100470.06;;;21.04;38.76
57574;BME280;63722;48.858;21.906;2022-12-18T10:54:48;100463.88;;;21.03;38.89
57574;BME280;63722;48.858;21.906;2022-12-18T10:57:15;100466.56;;;21.03;39.02
57574;BME280;63722;48.858;21.906;2022-12-18T10:59:52;100452.22;;;20.98;38.83
57574;BME280;63722;48.858;21.906;2022-12-18T11:02:35;100470.06;;;21.04;38.95
57574;BME280;63722;48.858;21.906;2022-12-18T11:05:03;100455.47;;;21.00;39.02
57574;BME280;63722;48.858;21.906;2022-12-18T11:07:49;100458.16;;;21.00;38.82
57574;BME280;63722;48.858;21.906;2022-12-18T11:10:17;100468.41;;;21.03;39.03
57574;BME280;63722;48.858;21.906;2022-12-18T11:12:43;100462.47;;;21.01;38.79
57574;BME280;63722;48.858;21.906;2022-12-18T11:15:16;100464.28;;;21.00;39.24
57574;BME280;63722;48.858;21.906;2022-12-18T11:17:48;100472.09;;;21.02;38.74
57574;BME280;63722;48.858;21.906;2022-12-18T11:22:58;100459.81;;;21.01;38.88
57574;BME280;63722;48.858;21.906;2022-12-18T11:25:24;100460.41;;;21.03;38.74
57574;BME280;63722;48.858;21.906;2022-12-18T11:28:27;100451.59;;;21.02;38.81
57574;BME280;63722;48.858;21.906;2022-12-18T11:33:44;100451.81;;;21.01;39.03
57574;BME280;63722;48.858;21.906;2022-12-18T11:36:12;100451.59;;;21.02;38.88
57574;BME280;63722;48.858;21.906;2022-12-18T11:38:41;100451.59;;;21.02;38.88
57574;BME280;63722;48.858;21.906;2022-12-18T11:41:28;100450.75;;;21.02;38.93
57574;BME280;63722;48.858;21.906;2022-12-18T11:44:15;100438.88;;;20.98;38.85
57574;BME280;63722;48.858;21.906;2022-12-18T11:46:49;100433.53;;;20.98;38.85
57574;BME280;63722;48.858;21.906;2022-12-18T11:49:26;100440.28;;;21.00;38.77
57574;BME280;63722;48.858;21.906;2022-12-18T11:54:37;100442.97;;;21.00;38.85
57574;BME280;63722;48.858;21.906;2022-12-18T12:02:41;100442.97;;;21.00;38.93
57574;BME280;63722;48.858;21.906;2022-12-18T12:10:53;100454.47;;;21.01;38.92
57574;BME280;63722;48.858;21.906;2022-12-18T12:13:47;100458.16;;;21.00;38.88
57574;BME280;63722;48.858;21.906;2022-12-18T12:16:18;100457.13;;;21.01;38.88
57574;BME280;63722;48.858;21.906;2022-12-18T12:19:20;100452.00;;;20.99;39.00
57574;BME280;63722;48.858;21.906;2022-12-18T12:21:59;100458.56;;;20.97;38.69
57574;BME280;63722;48.858;21.906;2022-12-18T12:24:51;100457.34;;;20.99;38.73
57574;BME280;63722;48.858;21.906;2022-12-18T12:27:40;100458.16;;;21.00;39.02
57574;BME280;63722;48.858;21.906;2022-12-18T12:30:22;100465.53;;;20.98;38.75
57574;BME280;63722;48.858;21.906;2022-12-18T12:38:31;100470.88;;;20.98;38.96
57574;BME280;63722;48.858;21.906;2022-12-18T12:41:02;100465.94;;;20.95;38.76
57574;BME280;63722;48.858;21.906;2022-12-18T12:43:40;100470.88;;;20.98;38.80
57574;BME280;63722;48.858;21.906;2022-12-18T12:46:09;100473.53;;;20.98;39.11
57574;BME280;63722;48.858;21.906;2022-12-18T12:51:19;100462.84;;;20.91;38.93
57574;BME280;63722;48.858;21.906;2022-12-18T12:53:47;100471.28;;;20.95;38.95
57574;BME280;63722;48.858;21.906;2022-12-18T12:56:15;100485.22;;;20.97;38.86
57574;BME280;63722;48.858;21.906;2022-12-18T13:01:40;100474.56;;;20.90;38.78
57574;BME280;63722;48.858;21.906;2022-12-18T13:04:39;100495.09;;;20.96;38.96
57574;BME280;63722;48.858;21.906;2022-12-18T13:07:27;100491.78;;;20.94;39.05
57574;BME280;63722;48.858;21.906;2022-12-18T13:13:02;100498.97;;;20.93;38.87
57574;BME280;63722;48.858;21.906;2022-12-18T13:18:20;100513.09;;;20.94;39.02
57574;BME280;63722;48.858;21.906;2022-12-18T13:25:53;100523.97;;;20.92;39.04
57574;BME280;63722;48.858;21.906;2022-12-18T13:34:22;100541.03;;;20.91;38.93
57574;BME280;63722;48.858;21.906;2022-12-18T13:36:49;100536.69;;;20.90;38.95
57574;BME280;63722;48.858;21.906;2022-12-18T13:41:45;100542.44;;;20.87;38.83
57574;BME280;63722;48.858;21.906;2022-12-18T13:46:46;100541.56;;;20.80;39.01
57574;BME280;63722;48.858;21.906;2022-12-18T13:51:40;100551.22;;;20.81;39.24
57574;BME280;63722;48.858;21.906;2022-12-18T13:54:19;100571.75;;;20.87;38.98
57574;BME280;63722;48.858;21.906;2022-12-18T13:56:47;100571.16;;;20.85;38.91
57574;BME280;63722;48.858;21.906;2022-12-18T13:59:17;100577.09;;;20.87;39.04
57574;BME280;63722;48.858;21.906;2022-12-18T14:04:35;100575.03;;;20.83;38.88
57574;BME280;63722;48.858;21.906;2022-12-18T14:07:10;100584.47;;;20.85;38.99
57574;BME280;63722;48.858;21.906;2022-12-18T14:09:41;100572.97;;;20.78;39.12
57574;BME280;63722;48.858;21.906;2022-12-18T14:12:28;100582.81;;;20.84;39.13
57574;BME280;63722;48.858;21.906;2022-12-18T14:17:59;100582.22;;;20.82;39.03
57574;BME280;63722;48.858;21.906;2022-12-18T14:20:26;100572.34;;;20.76;39.15
57574;BME280;63722;48.858;21.906;2022-12-18T14:22:52;100588.97;;;20.78;39.08
57574;BME280;63722;48.858;21.906;2022-12-18T14:25:26;100593.28;;;20.79;39.12
57574;BME280;63722;48.858;21.906;2022-12-18T14:28:02;100590.63;;;20.79;39.01
57574;BME280;63722;48.858;21.906;2022-12-18T14:30:42;100593.28;;;20.79;38.95
57574;BME280;63722;48.858;21.906;2022-12-18T14:35:36;100595.94;;;20.79;39.19
57574;BME280;63722;48.858;21.906;2022-12-18T14:40:56;100596.16;;;20.78;39.32
57574;BME280;63722;48.858;21.906;2022-12-18T14:43:22;100591.00;;;20.76;39.10
57574;BME280;63722;48.858;21.906;2022-12-18T14:45:48;100589.34;;;20.75;39.13
57574;BME280;63722;48.858;21.906;2022-12-18T14:48:21;100594.50;;;20.77;39.06